Terminal Aerodrome Forecast
Issued by NWS Wakefield, VA

Home | Current Version | Previous Version | Text Only | Print | Product List | Glossary On
Versions: 1 2 3 4 5 6 7 8 9 10 11 12 13 14
000
FTUS41 KAKQ 020500
TAFECG
TAF
KECG 020536Z 0206/0306 16007KT P6SM SCT015 OVC060
      TEMPO 0207/0209 5SM -RA BKN015
     FM021500 17011KT 5SM -RA OVC025=

USA.gov is the U.S. government's official web portal to all federal, state and local government web resources and services.